createdAt,value
2022-11-05T00:02:31.017Z,3.03
2022-11-05T00:05:16.081Z,6.27
2022-11-05T00:08:07.913Z,4.77
2022-11-05T00:10:37.621Z,4.80
2022-11-05T00:13:25.883Z,3.87
2022-11-05T00:16:11.285Z,3.53
2022-11-05T00:18:39.178Z,9.40
2022-11-05T00:21:27.348Z,5.90
2022-11-05T00:24:13.007Z,5.23
2022-11-05T00:26:41.191Z,4.87
2022-11-05T00:29:08.919Z,6.57
2022-11-05T00:31:36.646Z,6.10
2022-11-05T00:34:04.512Z,8.50
2022-11-05T00:36:32.282Z,7.00
2022-11-05T00:39:01.317Z,6.70
2022-11-05T00:41:29.025Z,11.67
2022-11-05T00:44:14.771Z,8.03
2022-11-05T00:46:42.539Z,6.90
2022-11-05T00:49:27.716Z,8.93
2022-11-05T00:52:17.041Z,7.83
2022-11-05T00:54:46.155Z,6.73
2022-11-05T00:57:13.937Z,5.90
2022-11-05T00:59:41.699Z,6.90
2022-11-05T01:02:09.588Z,7.07
2022-11-05T01:04:37.381Z,9.40
2022-11-05T01:07:05.134Z,7.43
2022-11-05T01:09:32.987Z,5.83
2022-11-05T01:12:02.228Z,7.37
2022-11-05T01:14:30.271Z,6.67
2022-11-05T01:16:58.001Z,8.17
2022-11-05T01:19:25.726Z,5.83
2022-11-05T01:21:53.549Z,10.20
2022-11-05T01:24:21.442Z,6.90
2022-11-05T01:26:49.253Z,5.93
2022-11-05T01:29:18.362Z,5.73
2022-11-05T01:31:46.171Z,9.50
2022-11-05T01:34:13.954Z,5.97
2022-11-05T01:36:41.707Z,8.47
2022-11-05T01:39:09.469Z,8.03
2022-11-05T01:41:37.255Z,6.73
2022-11-05T01:44:05.438Z,8.13
2022-11-05T01:46:37.522Z,6.53
2022-11-05T01:49:13.316Z,9.17
2022-11-05T01:51:42.243Z,10.47
2022-11-05T01:54:14.418Z,8.30
2022-11-05T01:56:45.699Z,8.17
2022-11-05T01:59:17.513Z,11.00
2022-11-05T02:01:47.627Z,8.80
2022-11-05T02:04:20.794Z,9.80
2022-11-05T02:06:48.700Z,8.97
2022-11-05T02:09:21.702Z,9.87
2022-11-05T02:11:50.891Z,9.97
2022-11-05T02:14:19.276Z,11.70
2022-11-05T02:16:54.301Z,7.77
2022-11-05T02:19:47.293Z,7.83
2022-11-05T02:22:41.693Z,12.07
2022-11-05T02:25:41.809Z,10.03
2022-11-05T02:28:35.005Z,11.67
2022-11-05T02:31:11.161Z,8.70
2022-11-05T02:33:45.005Z,8.30
2022-11-05T02:36:30.271Z,9.50
2022-11-05T02:39:09.473Z,9.30
2022-11-05T02:41:47.748Z,8.60
2022-11-05T02:44:24.892Z,9.53
2022-11-05T02:46:59.442Z,9.33
2022-11-05T02:49:36.301Z,6.97
2022-11-05T02:52:10.477Z,7.43
2022-11-05T02:54:44.114Z,8.17
2022-11-05T02:57:11.926Z,7.30
2022-11-05T02:59:39.746Z,8.60
2022-11-05T03:02:09.196Z,8.53
2022-11-05T03:04:37.162Z,8.77
2022-11-05T03:07:22.886Z,9.90
2022-11-05T03:10:18.777Z,11.47
2022-11-05T03:12:58.492Z,10.27
2022-11-05T03:15:40.204Z,10.13
2022-11-05T03:18:15.936Z,7.60
2022-11-05T03:20:49.965Z,9.03
2022-11-05T03:23:28.689Z,8.70
2022-11-05T03:26:17.546Z,11.03
2022-11-05T03:28:49.180Z,8.47
2022-11-05T03:31:18.767Z,8.30
2022-11-05T03:33:49.709Z,10.10
2022-11-05T03:36:22.947Z,10.70
2022-11-05T03:38:54.251Z,10.73
2022-11-05T03:41:23.952Z,10.40
2022-11-05T03:43:56.114Z,10.60
2022-11-05T03:46:29.371Z,10.77
2022-11-05T03:49:00.259Z,11.07
2022-11-05T03:51:37.537Z,10.10
2022-11-05T03:54:06.328Z,13.17
2022-11-05T03:56:39.277Z,13.30
2022-11-05T03:59:10.361Z,12.43
2022-11-05T04:01:39.383Z,11.27
2022-11-05T04:04:10.293Z,13.80
2022-11-05T04:06:55.577Z,13.83
2022-11-05T04:09:40.812Z,15.90
2022-11-05T04:12:27.788Z,13.37
2022-11-05T04:14:55.683Z,15.50
2022-11-05T04:17:22.671Z,14.80
2022-11-05T04:20:09.237Z,16.73
2022-11-05T04:22:54.859Z,24.63
2022-11-05T04:25:23.476Z,18.23
2022-11-05T04:27:51.263Z,23.40
2022-11-05T04:30:19.376Z,20.93
2022-11-05T04:33:02.046Z,22.10
2022-11-05T04:35:33.004Z,15.33
2022-11-05T04:38:01.138Z,16.90
2022-11-05T04:40:29.328Z,21.67
2022-11-05T04:42:58.377Z,22.97
2022-11-05T04:45:28.506Z,21.00
2022-11-05T04:47:56.364Z,17.83
2022-11-05T04:50:24.870Z,15.10
2022-11-05T04:52:54.156Z,16.13
2022-11-05T04:55:22.237Z,15.10
2022-11-05T04:57:50.575Z,16.37
2022-11-05T05:00:19.610Z,18.07
2022-11-05T05:02:47.865Z,20.50
2022-11-05T05:05:16.461Z,18.83
2022-11-05T05:07:44.323Z,18.73
2022-11-05T05:10:14.053Z,19.07
2022-11-05T05:12:42.060Z,23.67
2022-11-05T05:15:09.961Z,25.50
2022-11-05T05:17:37.831Z,23.50
2022-11-05T05:20:38.015Z,25.37
2022-11-05T05:23:06.274Z,26.57
2022-11-05T05:25:35.433Z,25.23
2022-11-05T05:28:03.428Z,28.33
2022-11-05T05:30:31.158Z,28.53
2022-11-05T05:33:02.876Z,34.43
2022-11-05T05:35:30.646Z,35.53
2022-11-05T05:37:58.364Z,37.13
2022-11-05T05:40:26.127Z,39.47
2022-11-05T05:42:56.555Z,41.27
2022-11-05T05:45:24.312Z,50.73
2022-11-05T05:47:52.148Z,49.73
2022-11-05T05:50:19.913Z,52.03
2022-11-05T05:52:47.716Z,55.80
2022-11-05T05:55:16.021Z,56.27
2022-11-05T05:57:43.850Z,48.13
2022-11-05T06:00:14.878Z,49.53
2022-11-05T06:02:42.999Z,48.53
2022-11-05T06:05:11.099Z,48.83
2022-11-05T06:07:38.889Z,44.27
2022-11-05T06:10:07.678Z,41.43
2022-11-05T06:12:35.679Z,44.10
2022-11-05T06:15:04.022Z,35.70
2022-11-05T06:17:34.015Z,36.53
2022-11-05T06:20:01.880Z,36.20
2022-11-05T06:22:30.274Z,37.97
2022-11-05T06:24:58.113Z,39.67
2022-11-05T06:27:26.017Z,36.77
2022-11-05T06:29:53.807Z,31.60
2022-11-05T06:32:21.674Z,33.30
2022-11-05T06:34:50.991Z,39.17
2022-11-05T06:37:18.820Z,32.77
2022-11-05T06:39:46.698Z,36.80
2022-11-05T06:42:19.052Z,41.73
2022-11-05T06:44:47.417Z,38.33
2022-11-05T06:47:15.236Z,40.30
2022-11-05T06:49:43.165Z,33.37
2022-11-05T06:52:12.634Z,37.50
2022-11-05T06:54:40.779Z,36.67
2022-11-05T06:57:10.062Z,36.03
2022-11-05T06:59:38.274Z,37.00
2022-11-05T07:02:06.957Z,35.53
2022-11-05T07:04:34.958Z,41.13
2022-11-05T07:07:03.236Z,37.67
2022-11-05T07:09:32.374Z,41.37
2022-11-05T07:12:00.428Z,40.40
2022-11-05T07:14:28.205Z,37.33
2022-11-05T07:16:57.903Z,38.20
2022-11-05T07:19:25.618Z,34.87
2022-11-05T07:21:53.433Z,40.57
2022-11-05T07:24:27.715Z,36.50
2022-11-05T07:26:57.129Z,33.93
2022-11-05T07:29:24.977Z,36.80
2022-11-05T07:31:55.441Z,38.20
2022-11-05T07:34:23.334Z,35.43
2022-11-05T07:37:01.230Z,47.30
2022-11-05T07:39:32.008Z,42.37
2022-11-05T07:42:12.659Z,40.63
2022-11-05T07:47:28.925Z,41.50
2022-11-05T07:50:05.516Z,40.30
2022-11-05T07:52:33.657Z,31.13
2022-11-05T07:55:01.498Z,33.30
2022-11-05T07:57:31.048Z,27.40
2022-11-05T07:59:58.896Z,26.80
2022-11-05T08:02:34.916Z,27.53
2022-11-05T08:05:10.113Z,25.27
2022-11-05T08:07:38.821Z,21.97
2022-11-05T08:10:09.929Z,21.03
2022-11-05T08:12:41.793Z,20.07
2022-11-05T08:15:11.263Z,24.93
2022-11-05T08:17:39.395Z,22.03
2022-11-05T08:20:09.009Z,24.17
2022-11-05T08:22:43.645Z,24.63
2022-11-05T08:25:15.667Z,19.93
2022-11-05T08:27:56.675Z,21.17
2022-11-05T08:30:29.221Z,18.67
2022-11-05T08:33:01.951Z,18.63
2022-11-05T08:35:35.977Z,19.60
2022-11-05T08:38:10.451Z,16.83
2022-11-05T08:40:38.597Z,15.50
2022-11-05T08:43:13.889Z,13.07
2022-11-05T08:45:46.723Z,13.60
2022-11-05T08:48:21.668Z,12.13
2022-11-05T08:50:50.009Z,13.97
2022-11-05T08:53:18.021Z,11.97
2022-11-05T08:55:51.578Z,10.07
2022-11-05T08:58:20.989Z,11.83
2022-11-05T09:00:51.988Z,14.07
2022-11-05T09:03:20.205Z,19.63
2022-11-05T09:05:48.375Z,13.30
2022-11-05T09:08:18.318Z,23.83
2022-11-05T09:10:47.877Z,42.07
2022-11-05T09:13:19.320Z,17.17
2022-11-05T09:15:50.270Z,14.57
2022-11-05T09:18:19.534Z,17.23
2022-11-05T09:20:48.440Z,16.73
2022-11-05T09:23:16.955Z,10.90
2022-11-05T09:25:46.938Z,12.67
2022-11-05T09:28:22.055Z,12.43
2022-11-05T09:30:52.913Z,13.13
2022-11-05T09:33:23.306Z,12.17
2022-11-05T09:35:54.731Z,13.13
2022-11-05T09:38:23.981Z,14.17
2022-11-05T09:40:58.636Z,12.33
2022-11-05T09:43:32.158Z,15.00
2022-11-05T09:46:08.849Z,15.93
2022-11-05T09:48:39.264Z,14.00
2022-11-05T09:51:22.423Z,16.07
2022-11-05T09:53:59.444Z,15.07
2022-11-05T09:56:39.398Z,18.63
2022-11-05T09:59:15.393Z,16.27
2022-11-05T10:02:05.615Z,20.47
2022-11-05T10:04:45.809Z,18.67
2022-11-05T10:07:18.077Z,15.70
2022-11-05T10:09:49.408Z,16.43
2022-11-05T10:12:23.980Z,17.73
2022-11-05T10:15:03.882Z,13.80
2022-11-05T10:17:38.872Z,13.57
2022-11-05T10:20:16.277Z,15.03
2022-11-05T10:22:49.336Z,14.60
2022-11-05T10:25:20.432Z,12.17
2022-11-05T10:27:55.449Z,14.53
2022-11-05T10:30:24.137Z,14.50
2022-11-05T10:32:58.401Z,13.07
2022-11-05T10:35:30.337Z,13.27
2022-11-05T10:37:58.549Z,14.73
2022-11-05T10:40:38.386Z,11.37
2022-11-05T10:43:11.544Z,12.77
2022-11-05T10:45:49.469Z,11.37
2022-11-05T10:48:43.667Z,13.77
2022-11-05T10:51:12.153Z,10.13
2022-11-05T10:53:54.880Z,14.77
2022-11-05T10:56:34.565Z,12.63
2022-11-05T10:59:07.987Z,13.47
2022-11-05T11:01:39.345Z,11.43
2022-11-05T11:04:17.055Z,11.40
2022-11-05T11:06:50.693Z,13.47
2022-11-05T11:09:25.654Z,11.10
2022-11-05T11:12:06.867Z,11.47
2022-11-05T11:14:35.286Z,11.60
2022-11-05T11:17:28.121Z,11.10
2022-11-05T11:20:22.004Z,9.47
2022-11-05T11:23:13.988Z,12.37
2022-11-05T11:25:49.068Z,9.03
2022-11-05T11:28:22.343Z,5.33
2022-11-05T11:30:55.082Z,7.27
2022-11-05T11:33:27.492Z,9.67
2022-11-05T11:35:57.837Z,8.47
2022-11-05T11:38:30.216Z,9.93
2022-11-05T11:41:03.698Z,8.97
2022-11-05T11:43:36.106Z,9.63
2022-11-05T11:46:08.852Z,8.60
2022-11-05T11:48:43.242Z,7.63
2022-11-05T11:51:31.673Z,7.60
2022-11-05T11:54:00.629Z,7.67
2022-11-05T11:56:30.271Z,5.97
2022-11-05T11:59:02.303Z,6.13
2022-11-05T12:01:55.635Z,5.97
2022-11-05T12:04:53.435Z,6.67
2022-11-05T12:07:34.908Z,7.43
2022-11-05T12:14:11.075Z,4.90
2022-11-05T12:17:04.999Z,7.53
2022-11-05T12:19:57.841Z,3.13
2022-11-05T12:22:36.479Z,6.10
2022-11-05T12:25:21.523Z,3.70
2022-11-05T12:28:21.296Z,3.97
2022-11-05T12:30:57.148Z,5.80
2022-11-05T12:33:31.165Z,5.80
2022-11-05T12:36:14.596Z,3.70
2022-11-05T12:39:07.892Z,2.90
2022-11-05T12:41:43.321Z,3.67
2022-11-05T12:44:34.947Z,5.67
2022-11-05T12:47:15.418Z,5.50
2022-11-05T12:49:55.385Z,3.30
2022-11-05T12:52:39.924Z,3.00
2022-11-05T12:55:15.413Z,5.07
2022-11-05T12:57:49.073Z,3.53
2022-11-05T13:00:20.396Z,4.80
2022-11-05T13:02:53.714Z,3.43
2022-11-05T13:05:28.645Z,7.23
2022-11-05T13:08:13.507Z,3.57
2022-11-05T13:10:50.834Z,7.47
2022-11-05T13:13:27.854Z,6.53
2022-11-05T13:16:00.259Z,3.83
2022-11-05T13:18:32.977Z,4.27
2022-11-05T13:21:16.116Z,6.53
2022-11-05T13:23:49.038Z,4.30
2022-11-05T13:26:26.631Z,8.10
2022-11-05T13:28:59.104Z,5.07
2022-11-05T13:31:32.554Z,4.57
2022-11-05T13:34:05.270Z,4.50
2022-11-05T13:36:57.246Z,6.73
2022-11-05T13:39:30.076Z,4.03
2022-11-05T13:42:23.944Z,5.40
2022-11-05T13:45:07.714Z,4.87
2022-11-05T13:47:55.949Z,8.40
2022-11-05T13:50:51.908Z,5.23
2022-11-05T13:53:55.064Z,5.73
2022-11-05T13:56:34.855Z,5.73
2022-11-05T13:59:45.269Z,6.60
2022-11-05T14:02:18.346Z,8.30
2022-11-05T14:04:48.911Z,7.20
2022-11-05T14:07:20.533Z,7.10
2022-11-05T14:09:54.601Z,4.33
2022-11-05T14:12:26.664Z,4.27
2022-11-05T14:15:03.905Z,2.77
2022-11-05T14:17:54.368Z,5.17
2022-11-05T14:20:39.589Z,4.80
2022-11-05T14:23:47.172Z,7.90
2022-11-05T14:26:19.435Z,3.93
2022-11-05T14:28:52.629Z,7.80
2022-11-05T14:34:46.107Z,7.60
2022-11-05T14:37:26.981Z,6.77
2022-11-05T14:39:56.188Z,5.63
2022-11-05T14:42:27.632Z,6.63
2022-11-05T14:45:06.977Z,5.33
2022-11-05T14:47:45.130Z,5.63
2022-11-05T14:50:20.856Z,3.57
2022-11-05T14:52:53.287Z,3.63
2022-11-05T14:55:29.237Z,3.43
2022-11-05T14:58:33.110Z,3.83
2022-11-05T15:01:02.974Z,7.83
2022-11-05T15:03:47.130Z,4.00
2022-11-05T15:06:25.898Z,4.27
2022-11-05T15:09:21.870Z,5.90
2022-11-05T15:12:00.492Z,2.57
2022-11-05T15:14:32.944Z,2.13
2022-11-05T15:17:09.659Z,4.20
2022-11-05T15:19:42.098Z,2.47
2022-11-05T15:22:30.008Z,3.27
2022-11-05T15:24:57.802Z,5.70
2022-11-05T15:27:50.234Z,2.57
2022-11-05T15:30:20.476Z,6.53
2022-11-05T15:32:48.564Z,3.47
2022-11-05T15:35:27.170Z,3.70
2022-11-05T15:38:02.026Z,3.30
2022-11-05T15:40:32.376Z,3.17
2022-11-05T15:43:12.047Z,3.93
2022-11-05T15:45:40.101Z,3.70
2022-11-05T15:48:15.377Z,4.13
2022-11-05T15:50:44.712Z,3.93
2022-11-05T15:54:15.783Z,2.60
2022-11-05T15:56:24.375Z,5.67
2022-11-05T15:58:55.645Z,5.00
2022-11-05T16:01:27.920Z,4.70
2022-11-05T16:03:57.930Z,4.93
2022-11-05T16:06:35.345Z,2.87
2022-11-05T16:09:03.856Z,3.47
2022-11-05T16:11:32.674Z,5.03
2022-11-05T16:14:16.027Z,3.23
2022-11-05T16:16:44.468Z,7.20
2022-11-05T16:19:40.913Z,5.47
2022-11-05T16:22:10.420Z,4.97
2022-11-05T16:24:38.594Z,4.13
2022-11-05T16:27:07.498Z,4.73
2022-11-05T16:29:37.133Z,1.77
2022-11-05T16:32:07.947Z,3.90
2022-11-05T16:34:39.131Z,3.27
2022-11-05T16:37:09.002Z,3.13
2022-11-05T16:39:40.988Z,4.77
2022-11-05T16:42:37.650Z,3.37
2022-11-05T16:45:06.697Z,3.30
2022-11-05T16:47:35.006Z,3.93
2022-11-05T16:50:03.220Z,4.30
2022-11-05T16:52:31.183Z,4.17
2022-11-05T16:55:00.387Z,4.70
2022-11-05T16:57:30.327Z,5.47
2022-11-05T17:00:00.199Z,5.10
2022-11-05T17:02:28.809Z,4.60
2022-11-05T17:04:56.855Z,6.93
2022-11-05T17:07:24.657Z,5.73
2022-11-05T17:09:52.486Z,7.73
2022-11-05T17:12:21.675Z,4.30
2022-11-05T17:14:49.471Z,4.30
2022-11-05T17:17:17.226Z,7.17
2022-11-05T17:19:45.667Z,5.37
2022-11-05T17:22:13.764Z,4.90
2022-11-05T17:24:44.829Z,5.10
2022-11-05T17:27:12.855Z,5.63
2022-11-05T17:29:42.171Z,7.33
2022-11-05T17:32:10.276Z,8.93
2022-11-05T17:34:38.219Z,6.93
2022-11-05T17:37:06.138Z,7.30
2022-11-05T17:39:37.019Z,7.83
2022-11-05T17:42:05.268Z,9.47
2022-11-05T17:44:33.193Z,7.97
2022-11-05T17:47:02.469Z,9.37
2022-11-05T17:49:30.757Z,7.90
2022-11-05T17:51:58.596Z,11.17
2022-11-05T17:54:26.463Z,10.20
2022-11-05T17:56:54.487Z,10.20
2022-11-05T17:59:22.351Z,9.30
2022-11-05T18:01:50.256Z,9.83
2022-11-05T18:04:19.505Z,10.40
2022-11-05T18:06:47.460Z,12.80
2022-11-05T18:09:15.840Z,11.83
2022-11-05T18:11:43.941Z,8.80
2022-11-05T18:14:11.766Z,9.87
2022-11-05T18:16:39.655Z,10.07
2022-11-05T18:19:07.574Z,10.93
2022-11-05T18:21:36.988Z,11.23
2022-11-05T18:24:05.462Z,8.53
2022-11-05T18:26:33.901Z,10.37
2022-11-05T18:29:02.303Z,10.50
2022-11-05T18:31:30.662Z,14.80
2022-11-05T18:34:00.578Z,11.17
2022-11-05T18:36:30.796Z,11.53
2022-11-05T18:39:01.600Z,9.70
2022-11-05T18:41:29.549Z,11.67
2022-11-05T18:44:13.171Z,13.00
2022-11-05T18:46:57.648Z,11.60
2022-11-05T18:49:26.819Z,9.73
2022-11-05T18:51:54.822Z,12.57
2022-11-05T18:54:24.516Z,12.50
2022-11-05T18:56:52.371Z,12.80
2022-11-05T18:59:39.073Z,14.50
2022-11-05T19:02:09.639Z,12.73
2022-11-05T19:04:38.383Z,14.90
2022-11-05T19:07:07.277Z,14.43
2022-11-05T19:09:38.138Z,16.80
2022-11-05T19:12:07.846Z,15.57
2022-11-05T19:14:36.895Z,13.87
2022-11-05T19:17:04.942Z,11.93
2022-11-05T19:19:32.811Z,10.13
2022-11-05T19:22:00.836Z,11.57
2022-11-05T19:24:29.125Z,13.90
2022-11-05T19:26:58.406Z,12.87
2022-11-05T19:29:26.254Z,15.13
2022-11-05T19:31:54.369Z,12.63
2022-11-05T19:34:22.164Z,11.73
2022-11-05T19:36:50.065Z,13.77
2022-11-05T19:39:18.272Z,11.80
2022-11-05T19:41:47.763Z,13.93
2022-11-05T19:44:17.116Z,12.60
2022-11-05T19:46:45.223Z,13.07
2022-11-05T19:49:13.527Z,17.03
2022-11-05T19:51:41.745Z,12.80
2022-11-05T19:54:10.038Z,12.77
2022-11-05T19:56:38.571Z,12.83
2022-11-05T19:59:07.550Z,15.87
2022-11-05T20:01:37.094Z,11.13
2022-11-05T20:04:05.790Z,10.83
2022-11-05T20:06:37.823Z,9.33
2022-11-05T20:09:21.472Z,12.13
2022-11-05T20:11:50.209Z,10.27
2022-11-05T20:14:18.417Z,11.67
2022-11-05T20:16:48.166Z,10.73
2022-11-05T20:19:18.355Z,11.77
2022-11-05T20:21:46.582Z,14.53
2022-11-05T20:24:22.428Z,11.57
2022-11-05T20:26:52.114Z,10.77
2022-11-05T20:29:20.459Z,9.93
2022-11-05T20:31:50.316Z,7.80
2022-11-05T20:34:18.512Z,12.00
2022-11-05T20:36:47.646Z,11.20
2022-11-05T20:39:15.564Z,10.73
2022-11-05T20:41:43.527Z,10.43
2022-11-05T20:44:14.213Z,12.87
2022-11-05T20:46:42.631Z,9.80
2022-11-05T20:49:12.337Z,10.07
2022-11-05T20:51:40.316Z,10.07
2022-11-05T20:54:08.637Z,12.47
2022-11-05T20:56:37.070Z,12.10
2022-11-05T20:59:05.735Z,14.03
2022-11-05T21:01:35.094Z,10.20
2022-11-05T21:04:04.347Z,11.23
2022-11-05T21:06:34.850Z,13.70
2022-11-05T21:09:04.043Z,10.30
2022-11-05T21:11:56.159Z,12.87
2022-11-05T21:14:24.123Z,12.53
2022-11-05T21:16:52.276Z,12.90
2022-11-05T21:19:20.614Z,14.43
2022-11-05T21:21:49.898Z,9.43
2022-11-05T21:24:17.909Z,12.87
2022-11-05T21:26:46.294Z,11.67
2022-11-05T21:29:14.293Z,10.43
2022-11-05T21:31:42.409Z,10.03
2022-11-05T21:34:10.375Z,11.33
2022-11-05T21:36:38.248Z,9.27
2022-11-05T21:39:13.018Z,10.50
2022-11-05T21:41:42.515Z,13.00
2022-11-05T21:44:10.659Z,9.83
2022-11-05T21:46:38.826Z,10.47
2022-11-05T21:49:06.813Z,11.50
2022-11-05T21:51:53.117Z,8.13
2022-11-05T21:54:39.822Z,10.93
2022-11-05T21:57:31.990Z,8.73
2022-11-05T22:00:00.901Z,9.67
2022-11-05T22:02:29.532Z,9.10
2022-11-05T22:04:59.880Z,10.00
2022-11-05T22:07:32.656Z,11.60
2022-11-05T22:10:02.793Z,12.47
2022-11-05T22:12:32.285Z,9.20
2022-11-05T22:15:00.268Z,10.23
2022-11-05T22:17:28.270Z,9.23
2022-11-05T22:19:56.164Z,10.33
2022-11-05T22:22:24.026Z,9.30
2022-11-05T22:24:51.974Z,8.77
2022-11-05T22:27:22.521Z,10.70
2022-11-05T22:29:50.946Z,15.10
2022-11-05T22:32:19.279Z,12.27
2022-11-05T22:34:48.983Z,12.33
2022-11-05T22:37:16.943Z,10.93
2022-11-05T22:39:44.801Z,11.80
2022-11-05T22:42:12.710Z,9.03
2022-11-05T22:44:41.952Z,9.07
2022-11-05T22:47:09.855Z,8.67
2022-11-05T22:49:37.824Z,8.43
2022-11-05T22:52:06.267Z,12.07
2022-11-05T22:54:39.041Z,9.97
2022-11-05T22:57:07.610Z,10.50
2022-11-05T22:59:35.417Z,12.20
2022-11-05T23:02:09.574Z,10.70
2022-11-05T23:04:38.996Z,10.73
2022-11-05T23:07:27.556Z,9.50
2022-11-05T23:10:13.926Z,10.40
2022-11-05T23:12:43.493Z,9.57
2022-11-05T23:15:33.787Z,10.97
2022-11-05T23:18:20.816Z,10.93
2022-11-05T23:21:07.383Z,10.40
2022-11-05T23:23:52.680Z,9.03
2022-11-05T23:26:38.154Z,9.97
2022-11-05T23:29:06.134Z,7.73
2022-11-05T23:31:51.483Z,8.20
2022-11-05T23:34:21.236Z,10.03
2022-11-05T23:37:06.807Z,12.07
2022-11-05T23:39:38.376Z,10.27
2022-11-05T23:42:28.336Z,9.13
2022-11-05T23:45:14.839Z,13.10
2022-11-05T23:48:02.097Z,9.30
2022-11-05T23:50:37.113Z,11.27
2022-11-05T23:53:08.557Z,10.67
2022-11-05T23:55:36.513Z,11.43
2022-11-05T23:58:04.556Z,9.23
